sensor_id;sensor_type;location;lat;lon;timestamp;temperature;humidity
46890;DHT22;32625;51.080;16.970;2024-02-14T00:00:44;1.20;99.90
46890;DHT22;32625;51.080;16.970;2024-02-14T00:03:11;1.10;99.90
46890;DHT22;32625;51.080;16.970;2024-02-14T00:05:38;1.10;99.90
46890;DHT22;32625;51.080;16.970;2024-02-14T00:08:08;1.10;99.90
46890;DHT22;32625;51.080;16.970;2024-02-14T00:10:35;1.20;99.90
46890;DHT22;32625;51.080;16.970;2024-02-14T00:13:02;1.20;99.90
46890;DHT22;32625;51.080;16.970;2024-02-14T00:15:29;1.10;99.90
46890;DHT22;32625;51.080;16.970;2024-02-14T00:17:56;1.20;99.90
46890;DHT22;32625;51.080;16.970;2024-02-14T00:20:23;1.20;99.90
46890;DHT22;32625;51.080;16.970;2024-02-14T00:22:51;1.30;99.90
46890;DHT22;32625;51.080;16.970;2024-02-14T00:25:18;1.30;99.90
46890;DHT22;32625;51.080;16.970;2024-02-14T00:27:46;1.40;99.90
46890;DHT22;32625;51.080;16.970;2024-02-14T00:30:13;1.40;99.90
46890;DHT22;32625;51.080;16.970;2024-02-14T00:32:41;1.40;99.90
46890;DHT22;32625;51.080;16.970;2024-02-14T00:35:08;1.40;99.90
46890;DHT22;32625;51.080;16.970;2024-02-14T00:37:36;1.40;99.90
46890;DHT22;32625;51.080;16.970;2024-02-14T00:40:03;1.50;99.90
46890;DHT22;32625;51.080;16.970;2024-02-14T00:42:30;1.50;99.90
46890;DHT22;32625;51.080;16.970;2024-02-14T00:44:57;1.40;99.90
46890;DHT22;32625;51.080;16.970;2024-02-14T00:47:24;1.40;99.90
46890;DHT22;32625;51.080;16.970;2024-02-14T00:49:51;1.40;99.90
46890;DHT22;32625;51.080;16.970;2024-02-14T00:52:19;1.40;99.90
46890;DHT22;32625;51.080;16.970;2024-02-14T00:54:48;1.40;99.90
46890;DHT22;32625;51.080;16.970;2024-02-14T00:57:15;1.40;99.90
46890;DHT22;32625;51.080;16.970;2024-02-14T00:59:43;1.40;99.90
46890;DHT22;32625;51.080;16.970;2024-02-14T01:02:10;1.50;99.90
46890;DHT22;32625;51.080;16.970;2024-02-14T01:04:37;1.50;99.90
46890;DHT22;32625;51.080;16.970;2024-02-14T01:07:04;1.50;99.90
46890;DHT22;32625;51.080;16.970;2024-02-14T01:09:32;1.50;99.90
46890;DHT22;32625;51.080;16.970;2024-02-14T01:11:59;1.50;99.90
46890;DHT22;32625;51.080;16.970;2024-02-14T01:14:26;1.40;99.90
46890;DHT22;32625;51.080;16.970;2024-02-14T01:16:53;1.40;99.90
46890;DHT22;32625;51.080;16.970;2024-02-14T01:19:20;1.40;99.90
46890;DHT22;32625;51.080;16.970;2024-02-14T01:21:48;1.30;99.90
46890;DHT22;32625;51.080;16.970;2024-02-14T01:24:16;1.30;99.90
46890;DHT22;32625;51.080;16.970;2024-02-14T01:26:43;1.20;99.90
46890;DHT22;32625;51.080;16.970;2024-02-14T01:29:10;1.20;99.90
46890;DHT22;32625;51.080;16.970;2024-02-14T01:31:37;1.20;99.90
46890;DHT22;32625;51.080;16.970;2024-02-14T01:34:04;1.10;99.90
46890;DHT22;32625;51.080;16.970;2024-02-14T01:36:31;1.10;99.90
46890;DHT22;32625;51.080;16.970;2024-02-14T01:38:58;1.10;99.90
46890;DHT22;32625;51.080;16.970;2024-02-14T01:41:25;1.10;99.90
46890;DHT22;32625;51.080;16.970;2024-02-14T01:43:52;1.00;99.90
46890;DHT22;32625;51.080;16.970;2024-02-14T01:46:19;1.00;99.90
46890;DHT22;32625;51.080;16.970;2024-02-14T01:48:46;1.00;99.90
46890;DHT22;32625;51.080;16.970;2024-02-14T01:51:17;1.00;99.90
46890;DHT22;32625;51.080;16.970;2024-02-14T01:53:46;0.90;99.90
46890;DHT22;32625;51.080;16.970;2024-02-14T01:56:13;0.90;99.90
46890;DHT22;32625;51.080;16.970;2024-02-14T01:58:41;1.00;99.90
46890;DHT22;32625;51.080;16.970;2024-02-14T02:01:09;0.90;99.90
46890;DHT22;32625;51.080;16.970;2024-02-14T02:03:37;0.90;99.90
46890;DHT22;32625;51.080;16.970;2024-02-14T02:06:05;0.90;99.90
46890;DHT22;32625;51.080;16.970;2024-02-14T02:08:33;0.90;99.90
46890;DHT22;32625;51.080;16.970;2024-02-14T02:11:00;0.90;99.90
46890;DHT22;32625;51.080;16.970;2024-02-14T02:13:27;0.80;99.90
46890;DHT22;32625;51.080;16.970;2024-02-14T02:15:54;0.80;99.90
46890;DHT22;32625;51.080;16.970;2024-02-14T02:18:21;0.80;99.90
46890;DHT22;32625;51.080;16.970;2024-02-14T02:20:48;0.70;99.90
46890;DHT22;32625;51.080;16.970;2024-02-14T02:23:16;0.70;99.90
46890;DHT22;32625;51.080;16.970;2024-02-14T02:25:43;0.70;99.90
46890;DHT22;32625;51.080;16.970;2024-02-14T02:28:11;0.70;99.90
46890;DHT22;32625;51.080;16.970;2024-02-14T02:30:38;0.70;99.90
46890;DHT22;32625;51.080;16.970;2024-02-14T02:33:05;0.70;99.90
46890;DHT22;32625;51.080;16.970;2024-02-14T02:35:34;0.70;99.90
46890;DHT22;32625;51.080;16.970;2024-02-14T02:38:02;0.70;99.90
46890;DHT22;32625;51.080;16.970;2024-02-14T02:40:29;0.70;99.90
46890;DHT22;32625;51.080;16.970;2024-02-14T02:42:56;0.70;99.90
46890;DHT22;32625;51.080;16.970;2024-02-14T02:45:23;0.70;99.90
46890;DHT22;32625;51.080;16.970;2024-02-14T02:47:50;0.70;99.90
46890;DHT22;32625;51.080;16.970;2024-02-14T02:50:19;0.60;99.90
46890;DHT22;32625;51.080;16.970;2024-02-14T02:52:47;0.60;99.90
46890;DHT22;32625;51.080;16.970;2024-02-14T02:55:14;0.60;99.90
46890;DHT22;32625;51.080;16.970;2024-02-14T02:57:44;0.60;99.90
46890;DHT22;32625;51.080;16.970;2024-02-14T03:00:13;0.50;99.90
46890;DHT22;32625;51.080;16.970;2024-02-14T03:02:40;0.50;99.90
46890;DHT22;32625;51.080;16.970;2024-02-14T03:05:12;0.50;99.90
46890;DHT22;32625;51.080;16.970;2024-02-14T03:07:50;0.40;99.90
46890;DHT22;32625;51.080;16.970;2024-02-14T03:10:19;0.40;99.90
46890;DHT22;32625;51.080;16.970;2024-02-14T03:12:48;0.40;99.90
46890;DHT22;32625;51.080;16.970;2024-02-14T03:15:16;0.40;99.90
46890;DHT22;32625;51.080;16.970;2024-02-14T03:17:45;0.40;99.90
46890;DHT22;32625;51.080;16.970;2024-02-14T03:20:12;0.40;99.90
46890;DHT22;32625;51.080;16.970;2024-02-14T03:22:44;0.40;99.90
46890;DHT22;32625;51.080;16.970;2024-02-14T03:25:19;0.40;99.90
46890;DHT22;32625;51.080;16.970;2024-02-14T03:27:47;0.40;99.90
46890;DHT22;32625;51.080;16.970;2024-02-14T03:30:21;0.30;99.90
46890;DHT22;32625;51.080;16.970;2024-02-14T03:32:50;0.30;99.90
46890;DHT22;32625;51.080;16.970;2024-02-14T03:35:17;0.30;99.90
46890;DHT22;32625;51.080;16.970;2024-02-14T03:37:46;0.20;99.90
46890;DHT22;32625;51.080;16.970;2024-02-14T03:40:15;0.30;99.90
46890;DHT22;32625;51.080;16.970;2024-02-14T03:42:43;0.40;99.90
46890;DHT22;32625;51.080;16.970;2024-02-14T03:45:11;0.40;99.90
46890;DHT22;32625;51.080;16.970;2024-02-14T03:47:38;0.30;99.90
46890;DHT22;32625;51.080;16.970;2024-02-14T03:50:10;0.30;99.90
46890;DHT22;32625;51.080;16.970;2024-02-14T03:52:38;0.30;99.90
46890;DHT22;32625;51.080;16.970;2024-02-14T03:55:05;0.20;99.90
46890;DHT22;32625;51.080;16.970;2024-02-14T03:57:32;0.20;99.90
46890;DHT22;32625;51.080;16.970;2024-02-14T04:00:02;0.20;99.90
46890;DHT22;32625;51.080;16.970;2024-02-14T04:02:37;0.20;99.90
46890;DHT22;32625;51.080;16.970;2024-02-14T04:05:07;0.20;99.90
46890;DHT22;32625;51.080;16.970;2024-02-14T04:07:35;0.20;99.90
46890;DHT22;32625;51.080;16.970;2024-02-14T04:10:04;0.20;99.90
46890;DHT22;32625;51.080;16.970;2024-02-14T04:12:31;0.20;99.90
46890;DHT22;32625;51.080;16.970;2024-02-14T04:14:58;0.10;99.90
46890;DHT22;32625;51.080;16.970;2024-02-14T04:17:25;0.20;99.90
46890;DHT22;32625;51.080;16.970;2024-02-14T04:19:52;0.20;99.90
46890;DHT22;32625;51.080;16.970;2024-02-14T04:22:19;0.20;99.90
46890;DHT22;32625;51.080;16.970;2024-02-14T04:24:47;0.10;99.90
46890;DHT22;32625;51.080;16.970;2024-02-14T04:27:14;0.00;99.90
46890;DHT22;32625;51.080;16.970;2024-02-14T04:29:45;0.10;99.90
46890;DHT22;32625;51.080;16.970;2024-02-14T04:32:14;0.10;99.90
46890;DHT22;32625;51.080;16.970;2024-02-14T04:34:41;0.10;99.90
46890;DHT22;32625;51.080;16.970;2024-02-14T04:37:10;0.00;99.90
46890;DHT22;32625;51.080;16.970;2024-02-14T04:39:40;0.00;99.90
46890;DHT22;32625;51.080;16.970;2024-02-14T04:42:07;0.00;99.90
46890;DHT22;32625;51.080;16.970;2024-02-14T04:44:35;0.00;99.90
46890;DHT22;32625;51.080;16.970;2024-02-14T04:47:03;0.00;99.90
46890;DHT22;32625;51.080;16.970;2024-02-14T04:49:30;0.00;99.90
46890;DHT22;32625;51.080;16.970;2024-02-14T04:51:57;0.00;99.90
46890;DHT22;32625;51.080;16.970;2024-02-14T04:54:25;0.00;99.90
46890;DHT22;32625;51.080;16.970;2024-02-14T04:56:53;0.00;99.90
46890;DHT22;32625;51.080;16.970;2024-02-14T04:59:25;0.00;99.90
46890;DHT22;32625;51.080;16.970;2024-02-14T05:01:52;0.10;99.90
46890;DHT22;32625;51.080;16.970;2024-02-14T05:04:21;0.10;99.90
46890;DHT22;32625;51.080;16.970;2024-02-14T05:06:48;0.10;99.90
46890;DHT22;32625;51.080;16.970;2024-02-14T05:09:17;0.10;99.90
46890;DHT22;32625;51.080;16.970;2024-02-14T05:11:44;0.10;99.90
46890;DHT22;32625;51.080;16.970;2024-02-14T05:14:11;0.10;99.90
46890;DHT22;32625;51.080;16.970;2024-02-14T05:16:38;0.10;99.90
46890;DHT22;32625;51.080;16.970;2024-02-14T05:19:05;0.10;99.90
46890;DHT22;32625;51.080;16.970;2024-02-14T05:21:32;0.10;99.90
46890;DHT22;32625;51.080;16.970;2024-02-14T05:23:59;0.00;99.90
46890;DHT22;32625;51.080;16.970;2024-02-14T05:26:26;0.00;99.90
46890;DHT22;32625;51.080;16.970;2024-02-14T05:28:53;0.00;99.90
46890;DHT22;32625;51.080;16.970;2024-02-14T05:31:20;-0.10;99.90
46890;DHT22;32625;51.080;16.970;2024-02-14T05:33:47;-0.10;99.90
46890;DHT22;32625;51.080;16.970;2024-02-14T05:36:15;0.00;99.90
46890;DHT22;32625;51.080;16.970;2024-02-14T05:38:42;-0.10;99.90
46890;DHT22;32625;51.080;16.970;2024-02-14T05:41:09;0.00;99.90
46890;DHT22;32625;51.080;16.970;2024-02-14T05:43:37;0.00;99.90
46890;DHT22;32625;51.080;16.970;2024-02-14T05:46:05;0.00;99.90
46890;DHT22;32625;51.080;16.970;2024-02-14T05:48:32;0.00;99.90
46890;DHT22;32625;51.080;16.970;2024-02-14T05:50:59;0.00;99.90
46890;DHT22;32625;51.080;16.970;2024-02-14T05:53:26;0.00;99.90
46890;DHT22;32625;51.080;16.970;2024-02-14T05:55:53;0.00;99.90
46890;DHT22;32625;51.080;16.970;2024-02-14T05:58:20;-0.10;99.90
46890;DHT22;32625;51.080;16.970;2024-02-14T06:00:47;0.00;99.90
46890;DHT22;32625;51.080;16.970;2024-02-14T06:03:14;0.00;99.90
46890;DHT22;32625;51.080;16.970;2024-02-14T06:05:42;0.00;99.90
46890;DHT22;32625;51.080;16.970;2024-02-14T06:08:09;0.00;99.90
46890;DHT22;32625;51.080;16.970;2024-02-14T06:10:36;0.00;99.90
46890;DHT22;32625;51.080;16.970;2024-02-14T06:13:05;0.00;99.90
46890;DHT22;32625;51.080;16.970;2024-02-14T06:15:32;0.00;99.90
46890;DHT22;32625;51.080;16.970;2024-02-14T06:17:59;0.00;99.90
46890;DHT22;32625;51.080;16.970;2024-02-14T06:20:26;0.00;99.90
46890;DHT22;32625;51.080;16.970;2024-02-14T06:22:53;0.10;99.90
46890;DHT22;32625;51.080;16.970;2024-02-14T06:25:31;0.10;99.90
46890;DHT22;32625;51.080;16.970;2024-02-14T06:27:58;0.10;99.90
46890;DHT22;32625;51.080;16.970;2024-02-14T06:30:25;0.10;99.90
46890;DHT22;32625;51.080;16.970;2024-02-14T06:32:56;0.10;99.90
46890;DHT22;32625;51.080;16.970;2024-02-14T06:35:28;0.20;99.90
46890;DHT22;32625;51.080;16.970;2024-02-14T06:37:56;0.20;99.90
46890;DHT22;32625;51.080;16.970;2024-02-14T06:40:30;0.30;99.90
46890;DHT22;32625;51.080;16.970;2024-02-14T06:42:58;0.20;99.90
46890;DHT22;32625;51.080;16.970;2024-02-14T06:45:27;0.20;99.90
46890;DHT22;32625;51.080;16.970;2024-02-14T06:47:55;0.20;99.90
46890;DHT22;32625;51.080;16.970;2024-02-14T06:50:22;0.20;99.90
46890;DHT22;32625;51.080;16.970;2024-02-14T06:52:52;0.20;99.90
46890;DHT22;32625;51.080;16.970;2024-02-14T06:55:19;0.20;99.90
46890;DHT22;32625;51.080;16.970;2024-02-14T06:57:46;0.20;99.90
46890;DHT22;32625;51.080;16.970;2024-02-14T07:00:13;0.20;99.90
46890;DHT22;32625;51.080;16.970;2024-02-14T07:02:40;0.30;99.90
46890;DHT22;32625;51.080;16.970;2024-02-14T07:05:08;0.30;99.90
46890;DHT22;32625;51.080;16.970;2024-02-14T07:07:39;0.30;99.90
46890;DHT22;32625;51.080;16.970;2024-02-14T07:10:07;0.40;99.90
46890;DHT22;32625;51.080;16.970;2024-02-14T07:12:34;0.40;99.90
46890;DHT22;32625;51.080;16.970;2024-02-14T07:15:04;0.40;99.90
46890;DHT22;32625;51.080;16.970;2024-02-14T07:17:32;0.50;99.90
46890;DHT22;32625;51.080;16.970;2024-02-14T07:20:00;0.50;99.90
46890;DHT22;32625;51.080;16.970;2024-02-14T07:22:27;0.50;99.90
46890;DHT22;32625;51.080;16.970;2024-02-14T07:24:54;0.60;99.90
46890;DHT22;32625;51.080;16.970;2024-02-14T07:27:21;0.70;99.90
46890;DHT22;32625;51.080;16.970;2024-02-14T07:29:50;0.80;99.90
46890;DHT22;32625;51.080;16.970;2024-02-14T07:32:18;0.90;99.90
46890;DHT22;32625;51.080;16.970;2024-02-14T07:34:44;0.90;99.90
46890;DHT22;32625;51.080;16.970;2024-02-14T07:37:12;1.00;99.90
46890;DHT22;32625;51.080;16.970;2024-02-14T07:39:38;1.00;99.90
46890;DHT22;32625;51.080;16.970;2024-02-14T07:42:06;1.10;99.90
46890;DHT22;32625;51.080;16.970;2024-02-14T07:44:33;1.10;99.90
46890;DHT22;32625;51.080;16.970;2024-02-14T07:47:01;1.20;99.90
46890;DHT22;32625;51.080;16.970;2024-02-14T07:49:31;1.30;99.90
46890;DHT22;32625;51.080;16.970;2024-02-14T07:51:58;1.40;99.90
46890;DHT22;32625;51.080;16.970;2024-02-14T07:54:25;1.50;99.90
46890;DHT22;32625;51.080;16.970;2024-02-14T07:56:52;1.50;99.90
46890;DHT22;32625;51.080;16.970;2024-02-14T07:59:19;1.60;99.90
46890;DHT22;32625;51.080;16.970;2024-02-14T08:01:47;1.60;99.90
46890;DHT22;32625;51.080;16.970;2024-02-14T08:04:14;1.60;99.90
46890;DHT22;32625;51.080;16.970;2024-02-14T08:06:46;1.70;99.90
46890;DHT22;32625;51.080;16.970;2024-02-14T08:09:13;1.70;99.90
46890;DHT22;32625;51.080;16.970;2024-02-14T08:11:40;1.80;99.90
46890;DHT22;32625;51.080;16.970;2024-02-14T08:14:07;1.90;99.90
46890;DHT22;32625;51.080;16.970;2024-02-14T08:16:34;2.00;99.90
46890;DHT22;32625;51.080;16.970;2024-02-14T08:19:02;2.00;99.90
46890;DHT22;32625;51.080;16.970;2024-02-14T08:21:30;2.10;99.90
46890;DHT22;32625;51.080;16.970;2024-02-14T08:23:58;2.20;99.90
46890;DHT22;32625;51.080;16.970;2024-02-14T08:26:27;2.20;99.90
46890;DHT22;32625;51.080;16.970;2024-02-14T08:28:55;2.30;99.90
46890;DHT22;32625;51.080;16.970;2024-02-14T08:31:22;2.40;99.90
46890;DHT22;32625;51.080;16.970;2024-02-14T08:33:49;2.40;99.90
46890;DHT22;32625;51.080;16.970;2024-02-14T08:36:17;2.50;99.90
46890;DHT22;32625;51.080;16.970;2024-02-14T08:38:46;2.60;99.90
46890;DHT22;32625;51.080;16.970;2024-02-14T08:41:14;2.60;99.90
46890;DHT22;32625;51.080;16.970;2024-02-14T08:43:41;2.70;99.90
46890;DHT22;32625;51.080;16.970;2024-02-14T08:46:11;2.80;99.90
46890;DHT22;32625;51.080;16.970;2024-02-14T08:48:38;2.80;99.90
46890;DHT22;32625;51.080;16.970;2024-02-14T08:51:13;2.90;99.90
46890;DHT22;32625;51.080;16.970;2024-02-14T08:53:40;3.00;99.90
46890;DHT22;32625;51.080;16.970;2024-02-14T08:56:10;3.00;99.90
46890;DHT22;32625;51.080;16.970;2024-02-14T08:58:38;3.10;99.90
46890;DHT22;32625;51.080;16.970;2024-02-14T09:01:05;3.10;99.90
46890;DHT22;32625;51.080;16.970;2024-02-14T09:03:41;3.20;99.90
46890;DHT22;32625;51.080;16.970;2024-02-14T09:06:16;3.40;99.90
46890;DHT22;32625;51.080;16.970;2024-02-14T09:08:44;3.40;99.90
46890;DHT22;32625;51.080;16.970;2024-02-14T09:11:11;3.50;99.90
46890;DHT22;32625;51.080;16.970;2024-02-14T09:13:39;3.60;99.90
46890;DHT22;32625;51.080;16.970;2024-02-14T09:16:09;3.70;99.90
46890;DHT22;32625;51.080;16.970;2024-02-14T09:18:37;3.80;99.90
46890;DHT22;32625;51.080;16.970;2024-02-14T09:21:04;3.90;99.90
46890;DHT22;32625;51.080;16.970;2024-02-14T09:23:32;4.00;99.90
46890;DHT22;32625;51.080;16.970;2024-02-14T09:26:00;4.00;99.90
46890;DHT22;32625;51.080;16.970;2024-02-14T09:28:28;4.10;99.90
46890;DHT22;32625;51.080;16.970;2024-02-14T09:30:55;4.20;99.90
46890;DHT22;32625;51.080;16.970;2024-02-14T09:33:22;4.30;99.90
46890;DHT22;32625;51.080;16.970;2024-02-14T09:35:49;4.40;99.90
46890;DHT22;32625;51.080;16.970;2024-02-14T09:38:18;4.50;99.90
46890;DHT22;32625;51.080;16.970;2024-02-14T09:40:45;4.60;99.90
46890;DHT22;32625;51.080;16.970;2024-02-14T09:43:36;4.70;99.90
46890;DHT22;32625;51.080;16.970;2024-02-14T09:46:05;4.80;99.90
46890;DHT22;32625;51.080;16.970;2024-02-14T09:48:34;4.80;99.90
46890;DHT22;32625;51.080;16.970;2024-02-14T09:51:02;5.00;99.90
46890;DHT22;32625;51.080;16.970;2024-02-14T09:53:30;5.00;99.90
46890;DHT22;32625;51.080;16.970;2024-02-14T09:56:01;5.00;99.90
46890;DHT22;32625;51.080;16.970;2024-02-14T09:58:29;5.10;99.90
46890;DHT22;32625;51.080;16.970;2024-02-14T10:00:56;5.20;99.90
46890;DHT22;32625;51.080;16.970;2024-02-14T10:03:23;5.30;99.90
46890;DHT22;32625;51.080;16.970;2024-02-14T10:05:50;5.40;99.90
46890;DHT22;32625;51.080;16.970;2024-02-14T10:08:18;5.40;99.90
46890;DHT22;32625;51.080;16.970;2024-02-14T10:10:45;5.50;99.90
46890;DHT22;32625;51.080;16.970;2024-02-14T10:13:18;5.50;99.90
46890;DHT22;32625;51.080;16.970;2024-02-14T10:15:45;5.60;99.90
46890;DHT22;32625;51.080;16.970;2024-02-14T10:18:12;5.70;99.90
46890;DHT22;32625;51.080;16.970;2024-02-14T10:20:51;5.70;99.90
46890;DHT22;32625;51.080;16.970;2024-02-14T10:23:18;5.80;99.90
46890;DHT22;32625;51.080;16.970;2024-02-14T10:25:49;5.80;99.90
46890;DHT22;32625;51.080;16.970;2024-02-14T10:28:16;5.90;99.90
46890;DHT22;32625;51.080;16.970;2024-02-14T10:30:45;6.00;99.90
46890;DHT22;32625;51.080;16.970;2024-02-14T10:33:12;6.00;99.90
46890;DHT22;32625;51.080;16.970;2024-02-14T10:35:54;6.10;99.90
46890;DHT22;32625;51.080;16.970;2024-02-14T10:38:27;6.20;99.90
46890;DHT22;32625;51.080;16.970;2024-02-14T10:40:58;6.30;99.90
46890;DHT22;32625;51.080;16.970;2024-02-14T10:43:27;6.40;99.90
46890;DHT22;32625;51.080;16.970;2024-02-14T10:45:56;6.50;99.90
46890;DHT22;32625;51.080;16.970;2024-02-14T10:48:25;6.60;99.90
46890;DHT22;32625;51.080;16.970;2024-02-14T10:50:58;6.60;99.90
46890;DHT22;32625;51.080;16.970;2024-02-14T10:53:29;6.70;99.90
46890;DHT22;32625;51.080;16.970;2024-02-14T10:56:00;6.80;99.90
46890;DHT22;32625;51.080;16.970;2024-02-14T10:58:29;6.80;99.90
46890;DHT22;32625;51.080;16.970;2024-02-14T11:00:58;6.90;99.90
46890;DHT22;32625;51.080;16.970;2024-02-14T11:03:25;6.90;99.90
46890;DHT22;32625;51.080;16.970;2024-02-14T11:05:53;7.00;99.90
46890;DHT22;32625;51.080;16.970;2024-02-14T11:08:28;7.10;99.90
46890;DHT22;32625;51.080;16.970;2024-02-14T11:10:56;7.10;99.90
46890;DHT22;32625;51.080;16.970;2024-02-14T11:13:31;7.10;99.90
46890;DHT22;32625;51.080;16.970;2024-02-14T11:16:02;7.10;99.90
46890;DHT22;32625;51.080;16.970;2024-02-14T11:18:31;7.20;99.90
46890;DHT22;32625;51.080;16.970;2024-02-14T11:21:03;7.30;99.90
46890;DHT22;32625;51.080;16.970;2024-02-14T11:23:31;7.30;99.90
46890;DHT22;32625;51.080;16.970;2024-02-14T11:26:03;7.30;99.90
46890;DHT22;32625;51.080;16.970;2024-02-14T11:28:31;7.40;99.90
46890;DHT22;32625;51.080;16.970;2024-02-14T11:31:03;7.50;99.90
46890;DHT22;32625;51.080;16.970;2024-02-14T11:33:32;7.50;99.90
46890;DHT22;32625;51.080;16.970;2024-02-14T11:36:07;7.60;99.90
46890;DHT22;32625;51.080;16.970;2024-02-14T11:38:34;7.60;99.90
46890;DHT22;32625;51.080;16.970;2024-02-14T11:41:02;7.60;99.90
46890;DHT22;32625;51.080;16.970;2024-02-14T11:43:30;7.70;99.90
46890;DHT22;32625;51.080;16.970;2024-02-14T11:45:58;7.80;99.90
46890;DHT22;32625;51.080;16.970;2024-02-14T11:48:25;8.00;99.90
46890;DHT22;32625;51.080;16.970;2024-02-14T11:50:53;8.00;99.90
46890;DHT22;32625;51.080;16.970;2024-02-14T11:53:21;8.10;99.90
46890;DHT22;32625;51.080;16.970;2024-02-14T11:55:48;8.10;99.90
46890;DHT22;32625;51.080;16.970;2024-02-14T11:58:16;8.10;99.90
46890;DHT22;32625;51.080;16.970;2024-02-14T12:00:45;8.00;99.90
46890;DHT22;32625;51.080;16.970;2024-02-14T12:03:21;8.10;99.90
46890;DHT22;32625;51.080;16.970;2024-02-14T12:05:51;8.10;99.90
46890;DHT22;32625;51.080;16.970;2024-02-14T12:08:20;8.00;99.90
46890;DHT22;32625;51.080;16.970;2024-02-14T12:10:48;8.10;99.90
46890;DHT22;32625;51.080;16.970;2024-02-14T12:13:20;8.10;99.90
46890;DHT22;32625;51.080;16.970;2024-02-14T12:15:49;8.10;99.90
46890;DHT22;32625;51.080;16.970;2024-02-14T12:18:18;8.10;99.90
46890;DHT22;32625;51.080;16.970;2024-02-14T12:20:46;8.10;99.90
46890;DHT22;32625;51.080;16.970;2024-02-14T12:23:19;8.20;99.90
46890;DHT22;32625;51.080;16.970;2024-02-14T12:25:47;8.20;99.90
46890;DHT22;32625;51.080;16.970;2024-02-14T12:28:18;8.20;99.90
46890;DHT22;32625;51.080;16.970;2024-02-14T12:30:51;8.30;99.90
46890;DHT22;32625;51.080;16.970;2024-02-14T12:33:25;8.30;99.90
46890;DHT22;32625;51.080;16.970;2024-02-14T12:35:54;8.30;99.90
46890;DHT22;32625;51.080;16.970;2024-02-14T12:38:21;8.40;99.90
46890;DHT22;32625;51.080;16.970;2024-02-14T12:40:50;8.50;99.90
46890;DHT22;32625;51.080;16.970;2024-02-14T12:43:20;8.50;99.90
46890;DHT22;32625;51.080;16.970;2024-02-14T12:45:48;8.60;99.90
46890;DHT22;32625;51.080;16.970;2024-02-14T12:48:22;8.70;99.90
46890;DHT22;32625;51.080;16.970;2024-02-14T12:50:51;8.80;99.90
46890;DHT22;32625;51.080;16.970;2024-02-14T12:53:19;8.90;99.90
46890;DHT22;32625;51.080;16.970;2024-02-14T12:55:47;9.00;99.90
46890;DHT22;32625;51.080;16.970;2024-02-14T12:58:14;9.10;99.90
46890;DHT22;32625;51.080;16.970;2024-02-14T13:00:42;9.10;99.90
46890;DHT22;32625;51.080;16.970;2024-02-14T13:03:11;9.20;99.90
46890;DHT22;32625;51.080;16.970;2024-02-14T13:05:42;9.20;99.90
46890;DHT22;32625;51.080;16.970;2024-02-14T13:08:09;9.20;99.90
46890;DHT22;32625;51.080;16.970;2024-02-14T13:10:38;9.20;99.90
46890;DHT22;32625;51.080;16.970;2024-02-14T13:13:05;9.20;99.90
46890;DHT22;32625;51.080;16.970;2024-02-14T13:15:32;9.20;99.90
46890;DHT22;32625;51.080;16.970;2024-02-14T13:17:59;9.20;99.90
46890;DHT22;32625;51.080;16.970;2024-02-14T13:20:28;9.20;99.90
46890;DHT22;32625;51.080;16.970;2024-02-14T13:22:55;9.20;99.90
46890;DHT22;32625;51.080;16.970;2024-02-14T13:25:22;9.20;99.50
46890;DHT22;32625;51.080;16.970;2024-02-14T13:27:50;9.20;99.70
46890;DHT22;32625;51.080;16.970;2024-02-14T13:30:17;9.20;99.40
46890;DHT22;32625;51.080;16.970;2024-02-14T13:32:45;9.30;99.90
46890;DHT22;32625;51.080;16.970;2024-02-14T13:35:13;9.20;99.90
46890;DHT22;32625;51.080;16.970;2024-02-14T13:37:40;9.20;99.90
46890;DHT22;32625;51.080;16.970;2024-02-14T13:40:08;9.20;99.90
46890;DHT22;32625;51.080;16.970;2024-02-14T13:42:38;9.20;99.90
46890;DHT22;32625;51.080;16.970;2024-02-14T13:45:06;9.10;99.90
46890;DHT22;32625;51.080;16.970;2024-02-14T13:47:38;9.20;99.90
46890;DHT22;32625;51.080;16.970;2024-02-14T13:50:09;9.20;99.90
46890;DHT22;32625;51.080;16.970;2024-02-14T13:52:36;9.20;99.90
46890;DHT22;32625;51.080;16.970;2024-02-14T13:55:05;9.30;99.90
46890;DHT22;32625;51.080;16.970;2024-02-14T13:57:37;9.20;99.70
46890;DHT22;32625;51.080;16.970;2024-02-14T14:00:08;9.20;98.80
46890;DHT22;32625;51.080;16.970;2024-02-14T14:02:38;9.30;99.60
46890;DHT22;32625;51.080;16.970;2024-02-14T14:05:09;9.30;98.30
46890;DHT22;32625;51.080;16.970;2024-02-14T14:07:38;9.30;99.70
46890;DHT22;32625;51.080;16.970;2024-02-14T14:10:23;9.30;99.90
46890;DHT22;32625;51.080;16.970;2024-02-14T14:12:52;9.20;99.90
46890;DHT22;32625;51.080;16.970;2024-02-14T14:15:19;9.20;99.90
46890;DHT22;32625;51.080;16.970;2024-02-14T14:17:46;9.20;99.50
46890;DHT22;32625;51.080;16.970;2024-02-14T14:20:13;9.10;99.70
46890;DHT22;32625;51.080;16.970;2024-02-14T14:22:41;9.20;99.50
46890;DHT22;32625;51.080;16.970;2024-02-14T14:25:08;9.10;99.90
46890;DHT22;32625;51.080;16.970;2024-02-14T14:27:35;9.10;99.90
46890;DHT22;32625;51.080;16.970;2024-02-14T14:30:03;9.10;99.90
46890;DHT22;32625;51.080;16.970;2024-02-14T14:32:32;9.00;99.90
46890;DHT22;32625;51.080;16.970;2024-02-14T14:34:59;8.90;99.90
46890;DHT22;32625;51.080;16.970;2024-02-14T14:37:26;8.90;99.90
46890;DHT22;32625;51.080;16.970;2024-02-14T14:39:53;8.90;99.90
46890;DHT22;32625;51.080;16.970;2024-02-14T14:42:22;8.80;99.90
46890;DHT22;32625;51.080;16.970;2024-02-14T14:44:49;8.80;99.90
46890;DHT22;32625;51.080;16.970;2024-02-14T14:47:16;8.80;99.90
46890;DHT22;32625;51.080;16.970;2024-02-14T14:49:44;8.80;99.90
46890;DHT22;32625;51.080;16.970;2024-02-14T14:52:11;8.70;99.90
46890;DHT22;32625;51.080;16.970;2024-02-14T14:54:38;8.70;99.90
46890;DHT22;32625;51.080;16.970;2024-02-14T14:57:05;8.70;99.90
46890;DHT22;32625;51.080;16.970;2024-02-14T14:59:38;8.70;99.90
46890;DHT22;32625;51.080;16.970;2024-02-14T15:02:05;8.70;99.90
46890;DHT22;32625;51.080;16.970;2024-02-14T15:04:32;8.70;99.90
46890;DHT22;32625;51.080;16.970;2024-02-14T15:07:01;8.70;99.90
46890;DHT22;32625;51.080;16.970;2024-02-14T15:09:29;8.70;99.90
46890;DHT22;32625;51.080;16.970;2024-02-14T15:11:58;8.80;99.90
46890;DHT22;32625;51.080;16.970;2024-02-14T15:14:25;8.70;99.90
46890;DHT22;32625;51.080;16.970;2024-02-14T15:16:53;8.70;99.90
46890;DHT22;32625;51.080;16.970;2024-02-14T15:19:20;8.70;99.90
46890;DHT22;32625;51.080;16.970;2024-02-14T15:21:48;8.70;99.90
46890;DHT22;32625;51.080;16.970;2024-02-14T15:24:16;8.70;99.90
46890;DHT22;32625;51.080;16.970;2024-02-14T15:26:43;8.70;99.90
46890;DHT22;32625;51.080;16.970;2024-02-14T15:29:17;8.70;99.90
46890;DHT22;32625;51.080;16.970;2024-02-14T15:32:04;8.70;99.90
46890;DHT22;32625;51.080;16.970;2024-02-14T15:34:50;8.70;99.90
46890;DHT22;32625;51.080;16.970;2024-02-14T15:37:18;8.70;99.90